Time;durP1;ratioP1;P1;durP2;ratioP2;P2;SDS_P1;SDS_P2;PMS_P1;PMS_P2;Temp;Humidity;BMP_temperature;BMP_pressure;BME280_temperature;BME280_humidity;BME280_pressure;Samples;Min_cycle;Max_cycle;Signal;HPM_P1;HPM_P2
2023/08/22 00:00:29;;;;;;;;;1.00;1.00;;;;;29.49;39.97;101984.53;5097870;27;45498;-72
2023/08/22 00:02:54;;;;;;;;;1.00;1.00;;;;;29.50;40.00;101989.72;5097776;27;46081;-72
2023/08/22 00:05:21;;;;;;;;;1.00;1.00;;;;;29.51;39.74;101990.53;5097722;27;45379;-72
2023/08/22 00:07:47;;;;;;;;;2.67;1.00;;;;;29.50;40.19;101984.34;5097880;27;45352;-71
2023/08/22 00:10:13;;;;;;;;;0.67;0.67;;;;;29.51;40.51;101982.47;5098348;27;45370;-72
2023/08/22 00:12:39;;;;;;;;;2.00;2.00;;;;;29.51;39.87;101977.13;5097765;27;45329;-72
2023/08/22 00:15:08;;;;;;;;;1.33;1.33;;;;;29.50;40.00;101975.47;5096368;27;47346;-71
2023/08/22 00:17:34;;;;;;;;;0.67;0.67;;;;;29.48;40.23;101964.97;5096475;27;45316;-72
2023/08/22 00:20:00;;;;;;;;;1.00;1.00;;;;;29.50;39.80;101962.06;5097648;27;45450;-72
2023/08/22 00:22:25;;;;;;;;;2.00;2.00;;;;;29.51;39.72;101963.72;5096994;27;46914;-71
2023/08/22 00:24:51;;;;;;;;;0.00;0.00;;;;;29.51;39.78;101959.19;5097539;27;45323;-72
2023/08/22 00:27:16;;;;;;;;;0.67;0.67;;;;;29.51;40.15;101958.34;5097595;27;45461;-72
2023/08/22 00:29:41;;;;;;;;;1.00;1.00;;;;;29.50;40.07;101964.75;5097485;27;45378;-71
2023/08/22 00:32:07;;;;;;;;;1.67;1.00;;;;;29.52;40.21;101963.53;5097428;27;46138;-72
2023/08/22 00:34:32;;;;;;;;;1.00;1.00;;;;;29.52;40.12;101957.34;5097380;27;45527;-72
2023/08/22 00:36:59;;;;;;;;;0.00;0.00;;;;;29.52;40.23;101954.66;5096985;27;45270;-72
2023/08/22 00:39:24;;;;;;;;;1.00;1.00;;;;;29.51;40.03;101952.97;5097492;27;45393;-72
2023/08/22 00:41:50;;;;;;;;;2.00;2.00;;;;;29.54;39.97;101949.06;5096799;27;46067;-72
2023/08/22 00:44:15;;;;;;;;;2.33;1.00;;;;;29.54;40.07;101949.06;5097323;27;45323;-72
2023/08/22 00:46:41;;;;;;;;;1.00;1.00;;;;;29.51;39.98;101948.47;5097061;27;45538;-72
2023/08/22 00:49:10;;;;;;;;;1.00;1.00;;;;;29.54;40.32;101949.06;5097125;27;45305;-72
2023/08/22 00:51:38;;;;;;;;;0.33;0.33;;;;;29.55;39.83;101954.25;5096906;27;46432;-71
2023/08/22 00:54:04;;;;;;;;;1.00;1.00;;;;;29.56;39.65;101947.03;5096765;27;45267;-71
2023/08/22 00:56:30;;;;;;;;;0.67;0.67;;;;;29.54;40.10;101933.81;5096826;27;45260;-72
2023/08/22 00:58:58;;;;;;;;;0.00;0.00;;;;;29.57;40.00;101940.63;5097262;27;45256;-72
2023/08/22 01:01:23;;;;;;;;;1.00;1.00;;;;;29.58;39.89;101944.97;5096766;27;45403;-72
2023/08/22 01:03:49;;;;;;;;;1.00;1.00;;;;;29.57;39.99;101944.13;5096775;27;45352;-72
2023/08/22 01:06:27;;;;;;;;;1.00;1.00;;;;;29.56;40.04;101945.16;5096562;27;45327;-71
2023/08/22 01:09:02;;;;;;;;;2.00;0.00;;;;;29.55;40.08;101945.38;5096940;27;45238;-72
2023/08/22 01:11:34;;;;;;;;;0.33;0.33;;;;;29.58;40.06;101953.00;5096597;27;47183;-71
2023/08/22 01:14:04;;;;;;;;;1.00;1.00;;;;;29.57;40.15;101952.19;5096564;27;45407;-72
2023/08/22 01:16:30;;;;;;;;;1.33;1.33;;;;;29.57;40.16;101949.50;5096514;27;45233;-72
2023/08/22 01:19:00;;;;;;;;;1.67;1.67;;;;;29.56;39.97;101955.06;5096724;27;45206;-72
2023/08/22 01:21:26;;;;;;;;;1.00;1.00;;;;;29.57;40.45;101954.03;5096203;27;47160;-72
2023/08/22 01:23:52;;;;;;;;;1.00;1.00;;;;;29.56;40.15;101945.16;5096512;27;45432;-72
2023/08/22 01:26:17;;;;;;;;;1.00;1.00;;;;;29.56;40.10;101947.03;5096280;27;45421;-71
2023/08/22 01:28:50;;;;;;;;;2.00;1.00;;;;;29.57;40.02;101952.19;5096505;27;45319;-72
2023/08/22 01:31:26;;;;;;;;;1.00;1.00;;;;;29.54;40.09;101944.53;5096417;27;47080;-71
2023/08/22 01:33:59;;;;;;;;;1.00;1.00;;;;;29.56;40.14;101939.78;5096352;27;45421;-71
2023/08/22 01:36:25;;;;;;;;;0.00;0.00;;;;;29.56;40.43;101941.66;5096187;27;45394;-72
2023/08/22 01:38:53;;;;;;;;;1.00;1.00;;;;;29.54;39.82;101941.84;5096406;27;45463;-72
2023/08/22 01:41:19;;;;;;;;;1.00;1.00;;;;;29.56;40.09;101944.34;5095699;27;45535;-71
2023/08/22 01:43:45;;;;;;;;;0.67;0.67;;;;;29.55;40.24;101940.00;5096468;27;45280;-71
2023/08/22 01:46:10;;;;;;;;;1.00;1.00;;;;;29.57;39.83;101945.97;5096095;27;45332;-71
2023/08/22 01:48:37;;;;;;;;;0.67;0.67;;;;;29.58;39.96;101947.66;5096508;27;45538;-72
2023/08/22 01:51:03;;;;;;;;;2.00;1.00;;;;;29.57;39.95;101946.81;5095738;27;46844;-72
2023/08/22 01:53:29;;;;;;;;;2.00;1.00;;;;;29.57;39.82;101943.31;5096075;27;45330;-72
2023/08/22 01:56:01;;;;;;;;;1.00;1.00;;;;;29.55;40.15;101929.28;5095999;27;45380;-72
2023/08/22 01:58:27;;;;;;;;;0.67;0.67;;;;;29.56;40.20;101934.44;5096270;27;45351;-71
2023/08/22 02:00:52;;;;;;;;;0.33;0.00;;;;;29.58;39.94;101935.06;5096078;27;45330;-71
2023/08/22 02:03:19;;;;;;;;;1.00;1.00;;;;;29.57;39.83;101927.22;5096244;27;45349;-71
2023/08/22 02:05:44;;;;;;;;;1.00;1.00;;;;;29.58;40.11;101932.41;5095683;27;45474;-71
2023/08/22 02:08:09;;;;;;;;;1.00;1.00;;;;;29.58;39.89;101928.88;5096100;27;45358;-71
2023/08/22 02:10:35;;;;;;;;;1.00;1.00;;;;;29.58;40.06;101927.03;5095922;27;46313;-72
2023/08/22 02:13:00;;;;;;;;;1.67;1.00;;;;;29.58;39.99;101927.03;5095967;27;45355;-72
2023/08/22 02:15:25;;;;;;;;;0.00;0.00;;;;;29.56;40.24;101926.38;5096121;27;45340;-72
2023/08/22 02:17:51;;;;;;;;;1.00;1.00;;;;;29.57;40.07;101925.38;5095897;27;45361;-72
2023/08/22 02:20:18;;;;;;;;;0.33;0.33;;;;;29.59;40.17;101927.81;5095590;27;45433;-72
2023/08/22 02:22:43;;;;;;;;;0.00;0.00;;;;;29.57;40.08;101920.00;5096838;27;45295;-72
2023/08/22 02:25:09;;;;;;;;;1.00;1.00;;;;;29.57;39.93;101917.31;5095841;27;45302;-71
2023/08/22 02:27:36;;;;;;;;;1.33;1.00;;;;;29.59;40.18;101914.44;5095858;27;45461;-72
2023/08/22 02:30:10;;;;;;;;;1.00;1.00;;;;;29.57;40.44;101917.31;5095520;27;46201;-72
2023/08/22 02:32:35;;;;;;;;;1.00;1.00;;;;;29.57;40.13;101914.63;5095578;27;45358;-72
2023/08/22 02:35:02;;;;;;;;;0.67;0.67;;;;;29.58;40.08;101918.97;5095325;27;45311;-72
2023/08/22 02:37:27;;;;;;;;;0.00;0.00;;;;;29.58;40.37;101910.94;5095764;27;45442;-72
2023/08/22 02:39:54;;;;;;;;;1.00;1.00;;;;;29.58;40.00;101912.78;5098234;27;46696;-72
2023/08/22 02:42:19;;;;;;;;;0.67;0.67;;;;;29.59;40.13;101917.09;5098915;27;45312;-71
2023/08/22 02:44:44;;;;;;;;;1.00;1.00;;;;;29.58;40.16;101910.94;5098989;27;45468;-71
2023/08/22 02:47:10;;;;;;;;;0.00;0.00;;;;;29.58;40.19;101915.47;5099176;27;45376;-72
2023/08/22 02:49:35;;;;;;;;;1.00;1.00;;;;;29.59;39.91;101917.09;5098619;27;46977;-72
2023/08/22 02:52:02;;;;;;;;;2.00;2.00;;;;;29.57;40.01;101909.28;5098915;27;45399;-71
2023/08/22 02:54:27;;;;;;;;;1.00;1.00;;;;;29.52;40.38;101907.22;5098953;27;45347;-72
2023/08/22 02:56:52;;;;;;;;;0.00;0.00;;;;;29.57;40.49;101911.97;5098907;27;45326;-72
2023/08/22 02:59:20;;;;;;;;;2.00;1.00;;;;;29.56;40.26;101918.34;5098602;27;52728;-72
2023/08/22 03:01:45;;;;;;;;;1.00;1.00;;;;;29.57;40.19;101921.84;5098731;27;45386;-71
2023/08/22 03:04:10;;;;;;;;;2.67;1.00;;;;;29.57;40.34;101919.16;5098519;27;45333;-71
2023/08/22 03:06:36;;;;;;;;;0.33;0.33;;;;;29.54;40.23;101911.53;5098806;27;45306;-71
2023/08/22 03:09:03;;;;;;;;;0.00;0.00;;;;;29.57;40.13;101919.16;5098636;27;46307;-72
2023/08/22 03:11:28;;;;;;;;;3.00;1.00;;;;;29.55;40.24;101913.19;5098725;27;45398;-71
2023/08/22 03:13:54;;;;;;;;;1.33;1.33;;;;;29.57;40.19;101911.97;5098613;27;45370;-72
2023/08/22 03:16:19;;;;;;;;;1.00;1.00;;;;;29.58;39.83;101916.31;5098521;27;45440;-71
2023/08/22 03:18:44;;;;;;;;;0.00;0.00;;;;;29.57;39.61;101913.81;5098008;27;46183;-72
2023/08/22 03:21:10;;;;;;;;;0.00;0.00;;;;;29.58;40.05;101915.47;5098420;27;45371;-72
2023/08/22 03:23:35;;;;;;;;;0.00;0.00;;;;;29.58;40.37;101907.44;5098769;27;45369;-72
2023/08/22 03:26:02;;;;;;;;;1.00;1.00;;;;;29.59;40.21;101917.09;5098233;27;46593;-71
2023/08/22 03:28:28;;;;;;;;;1.00;1.00;;;;;29.58;39.83;101924.34;5098406;27;46067;-72
2023/08/22 03:30:57;;;;;;;;;0.00;0.00;;;;;29.57;39.99;101922.69;5097874;27;45249;-71
2023/08/22 03:33:24;;;;;;;;;2.00;0.00;;;;;29.57;40.13;101924.53;5098657;27;45552;-71
2023/08/22 03:35:50;;;;;;;;;1.00;1.00;;;;;29.57;40.40;101922.69;5098306;27;45296;-72
2023/08/22 03:38:15;;;;;;;;;1.00;1.00;;;;;29.58;40.21;101920.84;5098166;27;45343;-72
2023/08/22 03:40:41;;;;;;;;;0.00;0.00;;;;;29.57;40.06;101911.13;5097938;27;45346;-72
2023/08/22 03:43:06;;;;;;;;;0.00;0.00;;;;;29.57;40.09;101906.59;5098281;27;45389;-72
2023/08/22 03:45:31;;;;;;;;;0.33;0.33;;;;;29.57;40.23;101906.59;5097680;27;45371;-71
2023/08/22 03:47:57;;;;;;;;;0.00;0.00;;;;;29.57;39.86;101911.13;5098041;27;46875;-72
2023/08/22 03:50:22;;;;;;;;;1.33;1.33;;;;;29.55;40.45;101906.00;5097794;27;45368;-72
2023/08/22 03:52:47;;;;;;;;;0.00;0.00;;;;;29.57;40.09;101911.97;5098277;27;45234;-72
2023/08/22 03:55:13;;;;;;;;;0.00;0.00;;;;;29.55;40.51;101914.03;5098119;27;45365;-72
2023/08/22 03:57:38;;;;;;;;;0.00;0.00;;;;;29.56;40.20;101914.84;5097755;27;45351;-72
2023/08/22 04:00:04;;;;;;;;;1.00;1.00;;;;;29.57;40.12;101919.16;5097368;27;50649;-72
2023/08/22 04:02:29;;;;;;;;;0.33;0.33;;;;;29.53;40.35;101916.09;5097985;27;45299;-72
2023/08/22 04:04:56;;;;;;;;;0.33;0.33;;;;;29.55;40.42;101918.56;5097885;27;45526;-71
2023/08/22 04:07:21;;;;;;;;;0.33;0.33;;;;;29.55;40.31;101927.44;5097717;27;47078;-72
2023/08/22 04:09:47;;;;;;;;;0.67;0.67;;;;;29.56;40.21;101925.59;5097675;27;45450;-71
2023/08/22 04:12:12;;;;;;;;;0.67;0.67;;;;;29.54;40.38;101924.94;5097834;27;45579;-72
2023/08/22 04:14:37;;;;;;;;;1.00;1.00;;;;;29.51;40.26;101926.19;5097445;27;45344;-71
2023/08/22 04:17:02;;;;;;;;;0.00;0.00;;;;;29.55;40.39;101927.44;5097172;27;54493;-71
2023/08/22 04:19:28;;;;;;;;;0.33;0.33;;;;;29.50;40.21;101921.88;5097614;27;45419;-71
2023/08/22 04:21:53;;;;;;;;;0.67;0.67;;;;;29.52;40.18;101939.41;5098350;27;45378;-71
2023/08/22 04:24:18;;;;;;;;;0.00;0.00;;;;;29.56;40.15;101941.66;5097567;27;45326;-71
2023/08/22 04:26:44;;;;;;;;;1.00;1.00;;;;;29.55;40.28;101938.16;5097489;27;45482;-72
2023/08/22 04:29:09;;;;;;;;;3.00;1.00;;;;;29.56;40.13;101941.66;5097108;27;45454;-72
2023/08/22 04:31:34;;;;;;;;;0.00;0.00;;;;;29.56;40.08;101944.34;5097564;27;45482;-71
2023/08/22 04:34:00;;;;;;;;;0.00;0.00;;;;;29.55;40.16;101940.84;5097651;27;45384;-72
2023/08/22 04:36:25;;;;;;;;;0.00;0.00;;;;;29.56;40.23;101941.66;5097050;27;46002;-72
2023/08/22 04:38:50;;;;;;;;;0.33;0.33;;;;;29.55;40.15;101943.53;5097338;27;45359;-72
2023/08/22 04:41:16;;;;;;;;;1.00;1.00;;;;;29.55;40.14;101940.00;5097215;27;45425;-71
2023/08/22 04:43:41;;;;;;;;;1.00;1.00;;;;;29.56;40.14;101941.66;5096844;27;45650;-72
2023/08/22 04:46:07;;;;;;;;;1.00;1.00;;;;;29.57;40.01;101949.50;5097042;27;46257;-72
2023/08/22 04:48:32;;;;;;;;;1.00;0.00;;;;;29.56;40.10;101947.03;5096960;27;47909;-72
2023/08/22 04:50:57;;;;;;;;;0.67;0.67;;;;;29.56;40.20;101942.47;5097307;27;45320;-72
2023/08/22 04:53:24;;;;;;;;;1.33;1.00;;;;;29.54;40.00;101944.53;5097232;27;45339;-71
2023/08/22 04:55:49;;;;;;;;;1.33;0.00;;;;;29.56;40.28;101944.34;5096969;27;45620;-73
2023/08/22 04:58:15;;;;;;;;;0.67;0.67;;;;;29.55;39.87;101945.38;5096531;27;45197;-73
2023/08/22 05:00:40;;;;;;;;;0.00;0.00;;;;;29.55;40.36;101942.69;5096459;27;45435;-72
2023/08/22 05:03:05;;;;;;;;;0.00;0.00;;;;;29.54;40.33;101944.53;5096497;27;45545;-70
2023/08/22 05:05:30;;;;;;;;;3.00;1.00;;;;;29.54;38.28;101962.47;5089565;27;53114;-70
2023/08/22 05:07:56;;;;;;;;;1.00;1.00;;;;;29.45;37.63;101954.66;5091037;27;45373;-71
2023/08/22 05:10:22;;;;;;;;;1.00;0.67;;;;;29.39;37.90;101966.19;5082989;27;45512;-70
2023/08/22 05:12:47;;;;;;;;;1.00;1.00;;;;;29.36;37.39;101971.94;5080990;27;45560;-69
2023/08/22 05:15:13;;;;;;;;;2.00;2.00;;;;;29.30;37.12;101981.66;5086985;27;46018;-70
2023/08/22 05:17:38;;;;;;;;;1.00;1.00;;;;;29.26;37.27;101991.09;5096052;27;45465;-70
2023/08/22 05:20:06;;;;;;;;;1.00;1.00;;;;;29.21;37.47;101981.00;5096274;27;45349;-71
2023/08/22 05:22:31;;;;;;;;;1.67;1.00;;;;;29.15;37.34;101977.25;5095475;27;45422;-72
2023/08/22 05:24:57;;;;;;;;;1.00;1.00;;;;;29.07;37.12;101964.00;5095447;27;47151;-73
2023/08/22 05:27:22;;;;;;;;;1.00;1.00;;;;;29.04;37.15;101967.13;5095660;27;45530;-72
2023/08/22 05:29:47;;;;;;;;;1.00;0.00;;;;;29.00;37.27;101963.16;5094879;27;45300;-73
2023/08/22 05:32:13;;;;;;;;;2.00;1.00;;;;;28.96;37.20;101968.13;5087116;27;45426;-73
2023/08/22 05:34:38;;;;;;;;;2.00;0.67;;;;;28.92;36.87;101967.69;5075794;27;49016;-73
2023/08/22 05:37:03;;;;;;;;;2.00;1.00;;;;;28.93;37.15;101971.19;5075819;27;45361;-72
2023/08/22 05:39:29;;;;;;;;;0.33;0.33;;;;;28.92;37.16;101972.22;5076185;27;45813;-74
2023/08/22 05:41:54;;;;;;;;;1.00;1.00;;;;;28.92;37.22;101978.41;5089515;27;45367;-73
2023/08/22 05:44:19;;;;;;;;;1.00;1.00;;;;;28.93;36.72;101980.06;5096394;27;45320;-73
2023/08/22 05:46:45;;;;;;;;;1.33;1.33;;;;;28.93;37.72;101974.72;5095496;27;58482;-72
2023/08/22 05:49:10;;;;;;;;;1.00;1.00;;;;;28.93;37.69;101966.66;5096378;27;45270;-72
2023/08/22 05:51:35;;;;;;;;;1.00;1.00;;;;;28.93;37.78;101966.66;5096410;27;45209;-72
2023/08/22 05:54:00;;;;;;;;;1.00;1.00;;;;;28.96;37.84;101965.44;5096094;27;46272;-73
2023/08/22 05:56:26;;;;;;;;;3.00;1.00;;;;;28.98;38.11;101975.94;5095628;27;45284;-72
2023/08/22 05:58:51;;;;;;;;;1.00;1.00;;;;;29.01;37.94;101972.88;5096392;27;45339;-73
2023/08/22 06:01:16;;;;;;;;;2.33;1.00;;;;;29.04;38.64;101972.47;5096524;27;45486;-70
2023/08/22 06:03:42;;;;;;;;;1.33;1.33;;;;;29.06;38.45;101970.41;5096561;27;45994;-70
2023/08/22 06:06:07;;;;;;;;;2.00;2.00;;;;;29.10;38.57;101973.53;5096132;27;45276;-70
2023/08/22 06:08:32;;;;;;;;;1.67;1.00;;;;;29.12;38.79;101964.25;5096177;27;45358;-70
2023/08/22 06:10:58;;;;;;;;;2.33;1.33;;;;;29.16;38.53;101964.69;5095887;27;45263;-70
2023/08/22 06:13:23;;;;;;;;;2.00;1.33;;;;;29.18;38.07;101965.31;5097766;27;46022;-71
2023/08/22 06:15:48;;;;;;;;;1.67;1.67;;;;;29.15;38.64;101955.00;5099475;27;45349;-73
2023/08/22 06:18:14;;;;;;;;;1.00;1.00;;;;;29.23;38.80;101954.81;5099567;27;45349;-74
2023/08/22 06:20:39;;;;;;;;;3.00;1.00;;;;;29.25;39.25;101954.63;5099651;27;45429;-74
2023/08/22 06:23:05;;;;;;;;;2.33;2.00;;;;;29.24;38.59;101964.50;5099337;27;46073;-72
2023/08/22 06:25:32;;;;;;;;;5.00;2.00;;;;;29.14;37.59;101969.44;5099156;27;45429;-73
2023/08/22 06:27:57;;;;;;;;;5.67;3.00;;;;;29.02;38.79;101969.97;5099424;27;45422;-72
2023/08/22 06:30:23;;;;;;;;;1.67;1.67;;;;;29.00;38.23;101965.84;5099368;27;45331;-74
2023/08/22 06:32:48;;;;;;;;;4.00;2.00;;;;;29.02;38.70;101966.47;5099185;27;46179;-72
2023/08/22 06:35:13;;;;;;;;;2.00;1.00;;;;;29.03;38.62;101968.13;5099159;27;45270;-73
2023/08/22 06:37:39;;;;;;;;;1.00;1.00;;;;;28.96;39.09;101952.84;5099408;27;45391;-72
2023/08/22 06:40:05;;;;;;;;;1.00;1.00;;;;;29.01;39.11;101956.81;5098969;27;45454;-72
2023/08/22 06:42:31;;;;;;;;;2.00;2.00;;;;;29.11;39.16;101962.63;5098830;27;45510;-73
2023/08/22 06:44:56;;;;;;;;;3.00;2.00;;;;;29.14;38.98;101964.09;5131966;27;45354;-72
2023/08/22 06:47:22;;;;;;;;;2.00;2.00;;;;;29.14;39.34;101978.31;5099214;27;45341;-72
2023/08/22 06:49:47;;;;;;;;;2.00;1.00;;;;;29.19;39.22;101977.69;5099107;27;45456;-72
2023/08/22 06:52:13;;;;;;;;;1.67;1.67;;;;;29.22;39.20;101976.47;5099070;27;45889;-72
2023/08/22 06:54:38;;;;;;;;;1.00;1.00;;;;;29.24;39.34;101980.59;5098593;27;45513;-72
2023/08/22 06:57:03;;;;;;;;;1.00;1.00;;;;;29.25;38.90;101982.22;5098796;27;45436;-73
2023/08/22 06:59:29;;;;;;;;;0.33;0.33;;;;;29.26;39.21;101985.75;5099041;27;45568;-72
2023/08/22 07:01:54;;;;;;;;;3.00;1.00;;;;;29.28;39.46;101981.00;5098720;27;45341;-72
2023/08/22 07:04:19;;;;;;;;;0.33;0.33;;;;;29.29;39.67;101979.97;5098734;27;45479;-72
2023/08/22 07:06:45;;;;;;;;;2.33;1.33;;;;;29.28;39.25;101987.19;5098895;27;45362;-72
2023/08/22 07:09:10;;;;;;;;;1.67;1.67;;;;;29.27;39.74;101990.91;5098488;27;45311;-73
2023/08/22 07:11:35;;;;;;;;;3.00;1.67;;;;;29.35;39.62;102000.63;5098685;27;45362;-73
2023/08/22 07:14:01;;;;;;;;;1.00;1.00;;;;;29.36;39.48;101999.56;5098645;27;45374;-70
2023/08/22 07:16:26;;;;;;;;;1.00;1.00;;;;;29.36;39.77;102004.09;5098466;27;46062;-70
2023/08/22 07:18:51;;;;;;;;;2.33;1.00;;;;;29.39;39.88;102001.84;5098535;27;45451;-70
2023/08/22 07:21:17;;;;;;;;;3.00;1.67;;;;;29.39;40.09;102004.53;5098426;27;45272;-70
2023/08/22 07:23:42;;;;;;;;;2.00;2.00;;;;;29.42;39.58;102005.16;5098057;27;45326;-70
2023/08/22 07:26:07;;;;;;;;;2.00;0.00;;;;;29.44;39.73;102003.94;5097890;27;45303;-70
2023/08/22 07:28:33;;;;;;;;;1.00;1.00;;;;;29.45;39.99;102000.22;5098432;27;45347;-71
2023/08/22 07:31:00;;;;;;;;;2.00;2.00;;;;;29.44;40.00;102001.25;5098123;27;46487;-70
2023/08/22 07:33:25;;;;;;;;;0.67;0.67;;;;;29.47;40.14;102006.22;5098257;27;45339;-72
2023/08/22 07:35:51;;;;;;;;;1.67;1.00;;;;;29.44;40.06;102000.41;5098291;27;45389;-73
2023/08/22 07:38:17;;;;;;;;;2.00;1.67;;;;;29.46;39.84;102007.22;5097968;27;45328;-73
2023/08/22 07:40:43;;;;;;;;;1.00;1.00;;;;;29.48;40.04;102007.88;5097972;27;46039;-72
2023/08/22 07:43:09;;;;;;;;;3.00;2.00;;;;;29.48;40.21;102015.06;5098114;27;45422;-72
2023/08/22 07:45:34;;;;;;;;;1.00;1.00;;;;;29.47;40.42;102011.56;5097945;27;45396;-73
2023/08/22 07:47:59;;;;;;;;;1.33;0.33;;;;;29.51;40.20;102014.66;5096967;27;45548;-73
2023/08/22 07:50:25;;;;;;;;;3.67;2.00;;;;;29.52;40.17;102013.63;5097974;27;45394;-70
2023/08/22 07:52:50;;;;;;;;;3.67;0.67;;;;;29.52;40.46;102017.16;5097723;27;45383;-70
2023/08/22 07:55:16;;;;;;;;;2.67;1.00;;;;;29.50;40.38;102010.34;5098082;27;45413;-72
2023/08/22 07:57:41;;;;;;;;;1.00;1.00;;;;;29.54;40.35;102013.41;5097931;27;45402;-72
2023/08/22 08:00:11;;;;;;;;;2.33;1.00;;;;;29.54;40.23;102016.94;5097706;27;52403;-72
2023/08/22 08:02:40;;;;;;;;;2.33;1.00;;;;;29.55;40.58;102017.75;5097938;27;45249;-72
2023/08/22 08:05:06;;;;;;;;;1.00;1.00;;;;;29.54;40.74;102003.53;5098027;27;45388;-72
2023/08/22 08:07:32;;;;;;;;;1.33;1.33;;;;;29.54;40.59;102006.22;5097934;27;45345;-72
2023/08/22 08:09:58;;;;;;;;;1.00;1.00;;;;;29.57;40.59;102002.28;5099885;27;45581;-73
2023/08/22 08:12:23;;;;;;;;;4.00;2.00;;;;;29.54;40.83;102000.00;5097843;27;45411;-72
2023/08/22 08:14:49;;;;;;;;;1.67;1.00;;;;;29.55;40.65;102007.03;5097903;27;45280;-73
2023/08/22 08:17:17;;;;;;;;;1.00;1.00;;;;;29.56;40.75;102000.66;5097637;27;45316;-72
2023/08/22 08:19:42;;;;;;;;;1.00;0.00;;;;;29.57;40.84;102003.13;5097509;27;46116;-72
2023/08/22 08:22:08;;;;;;;;;2.00;1.33;;;;;29.56;40.71;101997.97;5097196;27;45411;-72
2023/08/22 08:24:33;;;;;;;;;1.00;1.00;;;;;29.55;41.04;101996.31;5113540;27;45931;-73
2023/08/22 08:26:58;;;;;;;;;1.00;1.00;;;;;29.59;40.80;102000.22;5097678;27;45409;-73
2023/08/22 08:29:24;;;;;;;;;1.00;1.00;;;;;29.59;40.99;102002.91;5097111;27;53416;-72
2023/08/22 08:31:49;;;;;;;;;0.33;0.33;;;;;29.58;40.91;102009.31;5097413;27;45394;-73
2023/08/22 08:34:14;;;;;;;;;1.00;1.00;;;;;29.59;40.77;102009.09;5097582;27;45418;-73
2023/08/22 08:36:39;;;;;;;;;1.00;1.00;;;;;29.60;40.88;102002.72;5094621;27;45586;-72
2023/08/22 08:39:05;;;;;;;;;2.00;2.00;;;;;29.60;41.02;102013.44;5097035;27;51089;-72
2023/08/22 08:41:33;;;;;;;;;1.00;1.00;;;;;29.61;40.81;102011.59;5097013;27;45708;-72
2023/08/22 08:44:00;;;;;;;;;2.33;1.00;;;;;29.55;40.87;102005.19;5097379;27;45321;-72
2023/08/22 08:46:29;;;;;;;;;2.00;1.00;;;;;29.59;41.08;102002.91;5096935;27;45274;-72
2023/08/22 08:48:55;;;;;;;;;2.00;1.00;;;;;29.60;40.77;101993.84;5097060;27;46299;-72
2023/08/22 08:51:22;;;;;;;;;1.67;1.67;;;;;29.59;41.04;101995.69;5096753;27;45685;-72
2023/08/22 08:53:49;;;;;;;;;0.00;0.00;;;;;29.61;40.84;102001.66;5097289;27;45367;-72
2023/08/22 08:56:16;;;;;;;;;0.67;0.67;;;;;29.61;41.35;102000.88;5096952;27;45283;-72
2023/08/22 08:58:42;;;;;;;;;1.67;1.67;;;;;29.60;40.98;101999.22;5096906;27;46416;-72
2023/08/22 09:01:08;;;;;;;;;1.00;1.00;;;;;29.63;40.95;102006.84;5096957;27;45387;-72
2023/08/22 09:03:33;;;;;;;;;0.67;0.67;;;;;29.62;40.99;102000.66;5097061;27;45454;-73
2023/08/22 09:05:59;;;;;;;;;1.00;1.00;;;;;29.61;40.94;101995.50;5096667;27;45414;-72
2023/08/22 09:08:24;;;;;;;;;1.00;1.00;;;;;29.63;41.29;102004.16;5096810;27;45367;-73
2023/08/22 09:10:51;;;;;;;;;1.00;1.00;;;;;29.64;40.94;102005.78;5096873;27;45382;-72
2023/08/22 09:13:27;;;;;;;;;1.00;1.00;;;;;29.65;41.28;102012.00;5096954;27;45317;-70
2023/08/22 09:16:00;;;;;;;;;2.00;1.00;;;;;29.61;41.22;102000.88;5096687;27;45482;-70
2023/08/22 09:18:26;;;;;;;;;0.67;0.67;;;;;29.64;41.65;102000.44;5096333;27;46921;-72
2023/08/22 09:20:52;;;;;;;;;1.00;1.00;;;;;29.65;41.13;101995.91;5096284;27;45384;-72
2023/08/22 09:23:27;;;;;;;;;0.67;0.67;;;;;29.60;41.14;101992.00;5096729;27;45351;-72
2023/08/22 09:25:54;;;;;;;;;1.00;1.00;;;;;29.64;41.16;102005.78;5096587;27;45417;-73
2023/08/22 09:28:19;;;;;;;;;1.00;1.00;;;;;29.65;41.17;101998.59;5096471;27;46200;-72
2023/08/22 09:30:52;;;;;;;;;1.00;1.00;;;;;29.67;41.21;102001.88;5096497;27;45304;-72
2023/08/22 09:33:18;;;;;;;;;0.00;0.00;;;;;29.63;41.37;101999.63;5096607;27;45362;-72
2023/08/22 09:35:45;;;;;;;;;0.00;0.00;;;;;29.67;41.09;102010.75;5096084;27;45391;-73
2023/08/22 09:38:10;;;;;;;;;1.00;1.00;;;;;29.67;41.21;102008.06;5096269;27;47354;-73
2023/08/22 09:40:48;;;;;;;;;0.33;0.33;;;;;29.67;41.12;102005.41;5096191;27;45380;-72
2023/08/22 09:43:13;;;;;;;;;1.00;1.00;;;;;29.67;41.53;102010.75;5096432;27;45359;-72
2023/08/22 09:45:42;;;;;;;;;0.33;0.33;;;;;29.68;41.22;102007.06;5095886;27;45355;-72
2023/08/22 09:48:13;;;;;;;;;0.67;0.67;;;;;29.69;41.48;102015.94;5095497;27;47641;-73
2023/08/22 09:50:42;;;;;;;;;2.00;1.00;;;;;29.68;41.50;102006.22;5096177;27;45470;-72
2023/08/22 09:53:10;;;;;;;;;1.00;1.00;;;;;29.69;41.39;101999.84;5096240;27;45375;-72
2023/08/22 09:55:35;;;;;;;;;0.00;0.00;;;;;29.63;41.52;101999.63;5096227;27;45270;-72
2023/08/22 09:58:02;;;;;;;;;0.00;0.00;;;;;29.70;41.25;101996.13;5096018;27;45997;-72
2023/08/22 10:00:30;;;;;;;;;1.00;1.00;;;;;29.68;41.06;102004.38;5095983;27;45364;-72
2023/08/22 10:02:57;;;;;;;;;1.00;1.00;;;;;29.70;41.53;101996.94;5095874;27;45319;-72
2023/08/22 10:05:23;;;;;;;;;1.67;1.00;;;;;29.71;41.38;102000.47;5096092;27;45414;-72
2023/08/22 10:07:49;;;;;;;;;0.00;0.00;;;;;29.71;41.29;101995.09;5095865;27;46132;-72
2023/08/22 10:10:15;;;;;;;;;1.00;1.00;;;;;29.70;41.20;101998.81;5096037;27;45321;-72
2023/08/22 10:12:42;;;;;;;;;0.67;0.00;;;;;29.72;41.30;101994.06;5094742;27;45452;-72
2023/08/22 10:15:08;;;;;;;;;1.00;1.00;;;;;29.73;41.63;101990.38;5096075;27;45219;-72
2023/08/22 10:17:34;;;;;;;;;1.33;0.33;;;;;29.73;41.59;101998.44;5095348;27;46297;-72
2023/08/22 10:20:06;;;;;;;;;1.00;1.00;;;;;29.73;41.36;101991.22;5095790;27;45296;-72
2023/08/22 10:22:33;;;;;;;;;1.00;1.00;;;;;29.73;41.52;101990.38;5096089;27;45296;-72
2023/08/22 10:25:04;;;;;;;;;1.33;1.33;;;;;29.76;41.35;101994.50;5095850;27;45418;-72
2023/08/22 10:27:29;;;;;;;;;2.67;1.00;;;;;29.74;41.50;101986.69;5095789;27;46103;-72
2023/08/22 10:30:13;;;;;;;;;1.67;1.33;;;;;29.77;41.41;101988.13;5128744;27;45426;-72
2023/08/22 10:32:39;;;;;;;;;0.67;0.67;;;;;29.77;41.74;101988.13;5095610;27;45297;-72
2023/08/22 10:35:12;;;;;;;;;0.67;0.67;;;;;29.77;41.55;101991.59;5095638;27;45427;-72
2023/08/22 10:37:47;;;;;;;;;1.00;1.00;;;;;29.77;41.75;101994.28;5095440;27;47191;-73
2023/08/22 10:40:20;;;;;;;;;0.00;0.00;;;;;29.78;41.69;101987.06;5095577;27;45361;-72
2023/08/22 10:42:52;;;;;;;;;0.33;0.33;;;;;29.78;41.69;101984.38;5095707;27;45291;-72
2023/08/22 10:45:18;;;;;;;;;0.00;0.00;;;;;29.75;41.71;101988.31;5095264;27;45297;-73
2023/08/22 10:47:47;;;;;;;;;1.00;1.00;;;;;29.76;41.52;101983.78;5094976;27;46205;-72
2023/08/22 10:50:13;;;;;;;;;1.33;1.33;;;;;29.76;41.56;101984.59;5095438;27;45315;-72
2023/08/22 10:52:39;;;;;;;;;1.33;1.33;;;;;29.77;41.68;101980.06;5095633;27;45452;-72
2023/08/22 10:55:08;;;;;;;;;1.33;0.67;;;;;29.76;41.80;101984.59;5095475;27;45389;-72
2023/08/22 10:57:38;;;;;;;;;1.00;1.00;;;;;29.76;41.67;101984.59;5095231;27;46176;-72
2023/08/22 11:00:19;;;;;;;;;1.00;1.00;;;;;29.74;41.46;101979.44;5096547;27;45355;-72
2023/08/22 11:02:48;;;;;;;;;2.67;1.00;;;;;29.75;41.77;101982.94;5098599;27;45355;-72
2023/08/22 11:05:15;;;;;;;;;2.00;1.00;;;;;29.78;41.64;101985.22;5098834;27;45404;-72
2023/08/22 11:07:46;;;;;;;;;0.00;0.00;;;;;29.77;42.11;101974.72;5098530;27;46650;-72
2023/08/22 11:10:19;;;;;;;;;2.00;2.00;;;;;29.77;41.65;101975.50;5098676;27;45441;-73
2023/08/22 11:12:46;;;;;;;;;1.00;1.00;;;;;29.80;41.66;101971.59;5098727;27;45323;-72
2023/08/22 11:15:16;;;;;;;;;1.00;1.00;;;;;29.78;41.55;101974.50;5098429;27;45323;-72
2023/08/22 11:17:43;;;;;;;;;1.67;1.67;;;;;29.78;41.68;101968.31;5098440;27;45304;-72
2023/08/22 11:20:13;;;;;;;;;1.00;1.00;;;;;29.80;41.45;101972.44;5098567;27;45476;-72